createdAt,value
2018-08-19T00:01:53.308Z,25.30
2018-08-19T00:04:22.061Z,25.00
2018-08-19T00:06:50.730Z,24.90
2018-08-19T00:09:19.434Z,24.90
2018-08-19T00:11:48.144Z,24.80
2018-08-19T00:14:34.786Z,24.70
2018-08-19T00:17:04.250Z,24.70
2018-08-19T00:19:34.405Z,24.80
2018-08-19T00:22:03.187Z,24.90
2018-08-19T00:24:32.682Z,25.10
2018-08-19T00:27:01.420Z,25.10
2018-08-19T00:29:35.281Z,25.20
2018-08-19T00:32:04.008Z,25.30
2018-08-19T00:34:33.776Z,25.30
2018-08-19T00:37:04.618Z,25.40
2018-08-19T00:39:33.531Z,25.30
2018-08-19T00:42:03.607Z,25.20
2018-08-19T00:44:32.968Z,25.30
2018-08-19T00:47:01.681Z,25.20
2018-08-19T00:49:30.415Z,25.30
2018-08-19T00:52:01.237Z,25.30
2018-08-19T00:54:31.081Z,25.40
2018-08-19T00:57:01.574Z,25.50
2018-08-19T00:59:31.507Z,25.60
2018-08-19T01:02:00.238Z,25.60
2018-08-19T01:04:29.032Z,25.70
2018-08-19T01:06:59.129Z,25.80
2018-08-19T01:09:31.489Z,25.80
2018-08-19T01:12:00.305Z,25.80
2018-08-19T01:14:28.995Z,25.90
2018-08-19T01:16:57.737Z,25.90
2018-08-19T01:19:26.394Z,25.90
2018-08-19T01:21:55.212Z,25.90
2018-08-19T01:24:23.968Z,25.90
2018-08-19T01:26:52.821Z,25.90
2018-08-19T01:29:30.649Z,26.00
2018-08-19T01:32:04.002Z,25.90
2018-08-19T01:34:33.437Z,25.90
2018-08-19T01:37:03.032Z,25.90
2018-08-19T01:39:31.715Z,25.90
2018-08-19T01:42:00.371Z,26.00
2018-08-19T01:44:29.025Z,25.90
2018-08-19T01:46:57.782Z,25.80
2018-08-19T01:49:26.921Z,25.70
2018-08-19T01:51:55.572Z,25.70
2018-08-19T01:54:24.978Z,25.60
2018-08-19T01:56:56.755Z,25.60
2018-08-19T01:59:29.552Z,25.30
2018-08-19T02:02:01.179Z,25.20
2018-08-19T02:04:31.716Z,25.20
2018-08-19T02:07:00.764Z,25.10
2018-08-19T02:09:29.485Z,25.00
2018-08-19T02:11:59.474Z,24.90
2018-08-19T02:14:28.204Z,25.10
2018-08-19T02:16:57.455Z,25.10
2018-08-19T02:19:26.127Z,24.80
2018-08-19T02:21:54.823Z,24.80
2018-08-19T02:24:23.560Z,24.80
2018-08-19T02:26:52.223Z,24.90
2018-08-19T02:29:38.292Z,25.00
2018-08-19T02:32:08.489Z,25.00
2018-08-19T02:34:41.888Z,25.10
2018-08-19T02:37:13.711Z,25.10
2018-08-19T02:39:44.624Z,25.20
2018-08-19T02:42:33.242Z,25.20
2018-08-19T02:45:06.864Z,25.20
2018-08-19T02:47:36.290Z,25.20
2018-08-19T02:50:05.541Z,25.20
2018-08-19T02:52:36.768Z,25.20
2018-08-19T02:55:07.352Z,25.20
2018-08-19T02:57:38.184Z,25.20
2018-08-19T03:00:07.865Z,25.30
2018-08-19T03:02:38.533Z,25.30
2018-08-19T03:05:09.856Z,25.30
2018-08-19T03:07:38.607Z,25.30
2018-08-19T03:10:09.582Z,25.30
2018-08-19T03:12:38.490Z,25.30
2018-08-19T03:15:08.407Z,25.30
2018-08-19T03:17:37.113Z,25.30
2018-08-19T03:20:07.648Z,25.30
2018-08-19T03:22:36.347Z,25.30
2018-08-19T03:25:05.261Z,25.30
2018-08-19T03:27:33.940Z,25.30
2018-08-19T03:30:04.101Z,25.30
2018-08-19T03:32:32.754Z,25.20
2018-08-19T03:35:07.136Z,24.90
2018-08-19T03:37:36.926Z,24.60
2018-08-19T03:40:06.357Z,24.30
2018-08-19T03:42:35.038Z,24.20
2018-08-19T03:45:09.161Z,24.20
2018-08-19T03:47:37.773Z,24.20
2018-08-19T03:50:11.789Z,24.10
2018-08-19T03:52:44.636Z,24.10
2018-08-19T03:55:18.569Z,23.90
2018-08-19T03:57:47.880Z,23.60
2018-08-19T04:00:17.984Z,23.60
2018-08-19T04:02:46.727Z,23.50
2018-08-19T04:05:15.459Z,23.20
2018-08-19T04:07:48.490Z,23.00
2018-08-19T04:10:17.147Z,22.90
2018-08-19T04:12:45.818Z,22.90
2018-08-19T04:15:14.973Z,22.80
2018-08-19T04:17:44.613Z,22.80
2018-08-19T04:20:14.258Z,22.80
2018-08-19T04:22:43.934Z,22.90
2018-08-19T04:25:12.847Z,22.90
2018-08-19T04:27:41.482Z,23.00
2018-08-19T04:30:10.263Z,23.10
2018-08-19T04:32:39.044Z,23.10
2018-08-19T04:35:07.798Z,23.20
2018-08-19T04:37:36.436Z,23.20
2018-08-19T04:40:11.606Z,23.30
2018-08-19T04:42:40.322Z,23.40
2018-08-19T04:45:09.010Z,23.40
2018-08-19T04:47:37.666Z,23.40
2018-08-19T04:50:06.477Z,23.30
2018-08-19T04:52:35.136Z,23.30
2018-08-19T04:55:03.850Z,23.30
2018-08-19T04:57:32.521Z,23.20
2018-08-19T05:00:01.189Z,23.20
2018-08-19T05:02:29.862Z,23.40
2018-08-19T05:04:58.575Z,23.50
2018-08-19T05:07:27.274Z,23.60
2018-08-19T05:09:58.162Z,23.80
2018-08-19T05:12:26.862Z,23.90
2018-08-19T05:14:55.629Z,24.00
2018-08-19T05:17:24.272Z,24.10
2018-08-19T05:20:00.372Z,24.10
2018-08-19T05:22:29.064Z,24.10
2018-08-19T05:24:57.688Z,24.00
2018-08-19T05:27:26.357Z,24.00
2018-08-19T05:29:55.042Z,23.90
2018-08-19T05:32:23.668Z,24.00
2018-08-19T05:34:52.333Z,24.10
2018-08-19T05:37:21.019Z,24.20
2018-08-19T05:39:54.578Z,24.20
2018-08-19T05:42:23.241Z,24.30
2018-08-19T05:44:51.949Z,24.50
2018-08-19T05:47:20.845Z,24.60
2018-08-19T05:49:50.089Z,24.70
2018-08-19T05:52:22.647Z,24.80
2018-08-19T05:54:54.645Z,24.90
2018-08-19T05:57:23.393Z,25.00
2018-08-19T05:59:53.207Z,25.00
2018-08-19T06:02:32.051Z,25.10
2018-08-19T06:05:01.707Z,25.20
2018-08-19T06:07:30.528Z,25.30
2018-08-19T06:09:59.216Z,25.30
2018-08-19T06:12:27.931Z,25.40
2018-08-19T06:14:58.781Z,25.40
2018-08-19T06:17:27.480Z,25.50
2018-08-19T06:19:56.125Z,25.60
2018-08-19T06:22:41.395Z,25.60
2018-08-19T06:25:11.095Z,25.70
2018-08-19T06:27:45.750Z,25.70
2018-08-19T06:30:15.389Z,25.80
2018-08-19T06:32:44.760Z,25.80
2018-08-19T06:35:13.744Z,25.80
2018-08-19T06:37:42.884Z,25.90
2018-08-19T06:40:13.366Z,25.90
2018-08-19T06:42:42.057Z,26.00
2018-08-19T06:45:11.576Z,26.10
2018-08-19T06:47:40.374Z,26.10
2018-08-19T06:50:17.480Z,26.10
2018-08-19T06:52:46.149Z,26.20
2018-08-19T06:55:15.176Z,26.30
2018-08-19T06:57:44.595Z,26.30
2018-08-19T07:00:18.608Z,26.40
2018-08-19T07:02:48.321Z,26.50
2018-08-19T07:05:17.139Z,26.60
2018-08-19T07:07:45.772Z,26.60
2018-08-19T07:10:24.392Z,26.70
2018-08-19T07:12:57.892Z,26.70
2018-08-19T07:15:26.745Z,26.80
2018-08-19T07:17:55.417Z,26.80
2018-08-19T07:20:24.037Z,26.70
2018-08-19T07:22:52.783Z,26.80
2018-08-19T07:25:21.462Z,26.80
2018-08-19T07:27:50.107Z,26.90
2018-08-19T07:30:19.376Z,26.90
2018-08-19T07:32:48.069Z,27.00
2018-08-19T07:35:16.756Z,27.10
2018-08-19T07:37:45.422Z,27.20
2018-08-19T07:40:14.094Z,27.20
2018-08-19T07:42:43.037Z,27.10
2018-08-19T07:45:11.768Z,27.00
2018-08-19T07:47:40.484Z,27.00
2018-08-19T07:50:10.014Z,27.10
2018-08-19T07:52:38.785Z,27.10
2018-08-19T07:55:08.065Z,27.10
2018-08-19T07:57:40.068Z,27.20
2018-08-19T08:00:09.141Z,27.20
2018-08-19T08:02:37.967Z,27.30
2018-08-19T08:05:08.396Z,27.40
2018-08-19T08:07:42.804Z,27.50
2018-08-19T08:10:11.548Z,27.50
2018-08-19T08:12:40.492Z,27.50
2018-08-19T08:15:10.064Z,27.50
2018-08-19T08:17:39.224Z,27.50
2018-08-19T08:20:08.644Z,27.50
2018-08-19T08:22:38.290Z,27.20
2018-08-19T08:25:11.518Z,27.30
2018-08-19T08:27:40.682Z,27.40
2018-08-19T08:30:11.024Z,27.50
2018-08-19T08:32:40.669Z,27.60
2018-08-19T08:35:09.874Z,27.70
2018-08-19T08:37:40.290Z,27.70
2018-08-19T08:40:10.252Z,27.80
2018-08-19T08:42:45.835Z,27.90
2018-08-19T08:45:19.664Z,28.00
2018-08-19T08:47:49.052Z,28.10
2018-08-19T08:50:17.854Z,28.20
2018-08-19T08:52:47.292Z,28.20
2018-08-19T08:55:15.992Z,28.10
2018-08-19T08:57:45.411Z,28.30
2018-08-19T09:00:14.606Z,28.40
2018-08-19T09:02:43.933Z,28.50
2018-08-19T09:05:13.082Z,28.50
2018-08-19T09:07:43.608Z,28.60
2018-08-19T09:10:13.818Z,28.70
2018-08-19T09:12:46.985Z,28.80
2018-08-19T09:15:15.790Z,28.80
2018-08-19T09:17:45.279Z,29.00
2018-08-19T09:20:14.481Z,28.90
2018-08-19T09:22:44.861Z,28.90
2018-08-19T09:25:13.762Z,29.00
2018-08-19T09:27:43.052Z,28.90
2018-08-19T09:30:45.000Z,28.90
2018-08-19T09:33:14.381Z,29.00
2018-08-19T09:35:45.385Z,29.10
2018-08-19T09:38:19.348Z,29.30
2018-08-19T09:40:48.927Z,29.30
2018-08-19T09:43:18.052Z,29.40
2018-08-19T09:45:47.490Z,29.30
2018-08-19T09:48:18.289Z,29.30
2018-08-19T09:50:47.730Z,29.30
2018-08-19T09:53:17.584Z,29.30
2018-08-19T09:55:53.633Z,29.30
2018-08-19T09:58:22.792Z,29.30
2018-08-19T10:02:00.088Z,29.50
2018-08-19T10:04:29.159Z,29.50
2018-08-19T10:07:07.289Z,29.40
2018-08-19T10:09:36.148Z,29.50
2018-08-19T10:12:06.015Z,29.50
2018-08-19T10:14:34.683Z,29.60
2018-08-19T10:17:03.488Z,29.80
2018-08-19T10:19:32.404Z,29.80
2018-08-19T10:22:02.255Z,30.00
2018-08-19T10:24:32.275Z,30.10
2018-08-19T10:27:01.808Z,30.20
2018-08-19T10:29:31.665Z,30.00
2018-08-19T10:32:02.021Z,30.00
2018-08-19T10:34:38.129Z,30.20
2018-08-19T10:37:07.153Z,30.20
2018-08-19T10:39:36.022Z,30.30
2018-08-19T10:42:17.672Z,30.40
2018-08-19T10:44:48.129Z,30.40
2018-08-19T10:47:16.816Z,30.50
2018-08-19T10:49:52.570Z,30.60
2018-08-19T10:52:25.541Z,30.70
2018-08-19T10:54:55.105Z,30.80
2018-08-19T10:57:24.210Z,30.90
2018-08-19T10:59:55.507Z,31.00
2018-08-19T11:02:24.535Z,30.90
2018-08-19T11:04:56.056Z,30.90
2018-08-19T11:07:26.476Z,31.00
2018-08-19T11:10:10.505Z,31.10
2018-08-19T11:12:39.415Z,31.10
2018-08-19T11:15:23.721Z,31.20
2018-08-19T11:17:52.729Z,31.40
2018-08-19T11:20:26.122Z,31.40
2018-08-19T11:22:55.940Z,31.50
2018-08-19T11:25:28.617Z,31.50
2018-08-19T11:27:57.813Z,31.60
2018-08-19T11:30:27.032Z,31.70
2018-08-19T11:32:55.737Z,31.80
2018-08-19T11:35:27.473Z,31.80
2018-08-19T11:37:56.480Z,31.90
2018-08-19T11:40:25.402Z,32.00
2018-08-19T11:42:54.070Z,31.80
2018-08-19T11:45:22.910Z,32.00
2018-08-19T11:47:56.121Z,32.10
2018-08-19T11:50:25.491Z,32.20
2018-08-19T11:52:57.081Z,32.30
2018-08-19T11:55:26.162Z,32.40
2018-08-19T11:57:54.749Z,32.40
2018-08-19T12:00:23.580Z,32.50
2018-08-19T12:02:53.179Z,32.60
2018-08-19T12:05:22.123Z,32.70
2018-08-19T12:07:55.588Z,32.80
2018-08-19T12:10:24.528Z,32.80
2018-08-19T12:12:53.458Z,32.90
2018-08-19T12:15:22.168Z,33.00
2018-08-19T12:17:51.066Z,33.10
2018-08-19T12:20:38.216Z,33.20
2018-08-19T12:23:07.401Z,33.30
2018-08-19T12:25:36.313Z,33.40
2018-08-19T12:28:05.133Z,33.50
2018-08-19T12:30:36.070Z,33.50
2018-08-19T12:33:16.365Z,33.50
2018-08-19T12:35:45.712Z,33.60
2018-08-19T12:38:14.561Z,33.70
2018-08-19T12:40:47.767Z,33.70
2018-08-19T12:43:16.658Z,33.90
2018-08-19T12:45:46.164Z,33.90
2018-08-19T12:48:16.138Z,34.00
2018-08-19T12:50:54.308Z,34.10
2018-08-19T12:53:23.776Z,34.10
2018-08-19T12:55:52.554Z,34.20
2018-08-19T12:58:21.370Z,34.20
2018-08-19T13:00:50.984Z,34.30
2018-08-19T13:03:19.912Z,34.40
2018-08-19T13:06:03.316Z,34.40
2018-08-19T13:08:33.343Z,34.60
2018-08-19T13:11:04.964Z,34.60
2018-08-19T13:13:34.281Z,34.70
2018-08-19T13:16:03.517Z,34.80
2018-08-19T13:18:37.569Z,34.90
2018-08-19T13:21:17.987Z,34.90
2018-08-19T13:23:47.180Z,34.90
2018-08-19T13:26:16.014Z,34.90
2018-08-19T13:28:52.223Z,35.00
2018-08-19T13:31:25.232Z,34.80
2018-08-19T13:33:54.070Z,34.80
2018-08-19T13:36:23.546Z,34.90
2018-08-19T13:38:52.431Z,35.00
2018-08-19T13:41:22.063Z,35.00
2018-08-19T13:43:50.866Z,35.20
2018-08-19T13:46:19.558Z,35.30
2018-08-19T13:48:48.239Z,35.40
2018-08-19T13:51:16.934Z,35.50
2018-08-19T13:53:45.643Z,35.60
2018-08-19T13:56:14.324Z,35.60
2018-08-19T13:58:43.014Z,35.70
2018-08-19T14:01:11.669Z,35.80
2018-08-19T14:03:40.323Z,35.90
2018-08-19T14:06:08.995Z,35.90
2018-08-19T14:08:37.728Z,36.00
2018-08-19T14:11:06.499Z,36.00
2018-08-19T14:13:35.328Z,36.00
2018-08-19T14:16:04.413Z,36.10
2018-08-19T14:18:33.920Z,36.10
2018-08-19T14:21:02.662Z,36.10
2018-08-19T14:23:31.809Z,36.10
2018-08-19T14:26:00.745Z,36.00
2018-08-19T14:28:29.711Z,36.10
2018-08-19T14:30:59.624Z,36.20
2018-08-19T14:33:29.236Z,36.40
2018-08-19T14:35:58.383Z,36.30
2018-08-19T14:38:27.314Z,36.30
2018-08-19T14:40:57.083Z,36.30
2018-08-19T14:43:26.009Z,36.20
2018-08-19T14:45:57.244Z,36.10
2018-08-19T14:48:26.556Z,36.10
2018-08-19T14:50:56.050Z,36.00
2018-08-19T14:53:25.375Z,36.00
2018-08-19T14:56:06.360Z,36.00
2018-08-19T14:58:35.823Z,35.90
2018-08-19T15:01:05.300Z,35.80
2018-08-19T15:03:34.208Z,35.80
2018-08-19T15:06:04.167Z,35.70
2018-08-19T15:08:34.720Z,35.70
2018-08-19T15:11:05.335Z,35.60
2018-08-19T15:13:34.465Z,35.70
2018-08-19T15:16:03.271Z,35.60
2018-08-19T15:18:31.967Z,35.60
2018-08-19T15:21:00.605Z,35.60
2018-08-19T15:23:29.268Z,35.60
2018-08-19T15:25:57.941Z,35.60
2018-08-19T15:28:26.703Z,35.50
2018-08-19T15:30:55.361Z,35.50
2018-08-19T15:33:24.060Z,35.30
2018-08-19T15:35:52.673Z,35.30
2018-08-19T15:38:21.361Z,35.40
2018-08-19T15:40:54.393Z,35.50
2018-08-19T15:43:23.072Z,35.50
2018-08-19T15:45:51.756Z,35.60
2018-08-19T15:48:20.485Z,35.80
2018-08-19T15:50:51.393Z,35.90
2018-08-19T15:53:26.600Z,36.00
2018-08-19T15:55:55.833Z,36.10
2018-08-19T15:58:24.778Z,36.30
2018-08-19T16:00:53.478Z,36.40
2018-08-19T16:03:23.388Z,36.60
2018-08-19T16:05:53.056Z,36.70
2018-08-19T16:08:22.000Z,36.80
2018-08-19T16:10:50.702Z,37.00
2018-08-19T16:13:19.496Z,37.10
2018-08-19T16:15:48.168Z,37.10
2018-08-19T16:18:16.918Z,37.20
2018-08-19T16:20:50.567Z,37.30
2018-08-19T16:23:19.225Z,37.40
2018-08-19T16:25:47.902Z,37.40
2018-08-19T16:28:16.606Z,37.50
2018-08-19T16:30:46.292Z,37.50
2018-08-19T16:33:14.949Z,37.50
2018-08-19T16:35:43.749Z,37.50
2018-08-19T16:38:12.679Z,37.60
2018-08-19T16:40:42.164Z,37.50
2018-08-19T16:43:11.072Z,37.50
2018-08-19T16:45:40.452Z,37.50
2018-08-19T16:48:09.634Z,37.40
2018-08-19T16:50:38.630Z,37.40
2018-08-19T16:53:07.466Z,37.30
2018-08-19T16:55:36.400Z,37.30
2018-08-19T16:58:06.275Z,37.20
2018-08-19T17:00:34.945Z,37.10
2018-08-19T17:03:40.053Z,37.00
2018-08-19T17:06:11.941Z,36.80
2018-08-19T17:08:41.408Z,36.50
2018-08-19T17:11:11.925Z,36.20
2018-08-19T17:13:41.436Z,36.10
2018-08-19T17:16:10.351Z,35.90
2018-08-19T17:18:39.284Z,35.60
2018-08-19T17:21:08.210Z,35.50
2018-08-19T17:23:37.700Z,35.30
2018-08-19T17:26:13.859Z,35.10
2018-08-19T17:28:42.477Z,34.90
2018-08-19T17:31:11.232Z,34.70
2018-08-19T17:33:39.843Z,34.50
2018-08-19T17:36:08.574Z,34.40
2018-08-19T17:38:37.524Z,34.20
2018-08-19T17:41:06.558Z,34.10
2018-08-19T17:43:39.258Z,34.00
2018-08-19T17:46:12.472Z,33.80
2018-08-19T17:48:42.258Z,33.70
2018-08-19T17:51:23.352Z,33.50
2018-08-19T17:53:52.968Z,33.50
2018-08-19T17:56:21.737Z,33.40
2018-08-19T17:58:50.916Z,33.30
2018-08-19T18:01:19.834Z,33.20
2018-08-19T18:03:48.733Z,33.10
2018-08-19T18:06:18.121Z,33.00
2018-08-19T18:08:53.135Z,32.90
2018-08-19T18:11:22.223Z,32.80
2018-08-19T18:13:51.752Z,32.70
2018-08-19T18:16:20.448Z,32.60
2018-08-19T18:18:49.720Z,32.50
2018-08-19T18:21:19.237Z,32.50
2018-08-19T18:23:49.220Z,32.40
2018-08-19T18:26:18.152Z,32.30
2018-08-19T18:28:48.266Z,32.30
2018-08-19T18:31:19.774Z,32.20
2018-08-19T18:33:53.561Z,32.20
2018-08-19T18:36:24.675Z,32.10
2018-08-19T18:38:54.377Z,32.10
2018-08-19T18:41:28.619Z,32.00
2018-08-19T18:44:00.594Z,32.00
2018-08-19T18:46:30.025Z,32.00
2018-08-19T18:49:08.024Z,31.90
2018-08-19T18:51:36.965Z,31.90
2018-08-19T18:54:06.867Z,31.80
2018-08-19T18:56:35.885Z,31.80
2018-08-19T18:59:05.455Z,31.70
2018-08-19T19:01:35.164Z,31.70
2018-08-19T19:04:04.260Z,31.60
2018-08-19T19:06:33.741Z,31.60
2018-08-19T19:09:02.714Z,31.50
2018-08-19T19:11:31.835Z,31.50
2018-08-19T19:14:03.922Z,31.40
2018-08-19T19:16:37.952Z,31.40
2018-08-19T19:19:07.628Z,31.40
2018-08-19T19:21:38.180Z,31.40
2018-08-19T19:24:14.213Z,31.40
2018-08-19T19:26:42.952Z,31.30
2018-08-19T19:29:16.384Z,31.30
2018-08-19T19:31:49.384Z,31.20
2018-08-19T19:34:19.240Z,31.10
2018-08-19T19:36:49.096Z,31.00
2018-08-19T19:39:18.302Z,31.00
2018-08-19T19:41:50.558Z,30.70
2018-08-19T19:44:28.199Z,30.70
2018-08-19T19:46:57.062Z,30.50
2018-08-19T19:49:25.900Z,30.40
2018-08-19T19:52:00.673Z,30.30
2018-08-19T19:54:30.845Z,30.20
2018-08-19T19:56:59.966Z,30.20
2018-08-19T19:59:30.468Z,30.10
2018-08-19T20:01:59.837Z,30.10
2018-08-19T20:04:29.705Z,30.10
2018-08-19T20:07:03.146Z,30.10
2018-08-19T20:09:34.834Z,30.00
2018-08-19T20:12:03.686Z,29.90
2018-08-19T20:14:36.833Z,29.80
2018-08-19T20:17:06.008Z,29.80
2018-08-19T20:19:34.824Z,29.80
2018-08-19T20:22:03.813Z,29.70
2018-08-19T20:24:32.481Z,29.80
2018-08-19T20:27:01.217Z,29.80
2018-08-19T20:29:29.872Z,29.70
2018-08-19T20:31:58.822Z,29.60
2018-08-19T20:34:27.483Z,29.50
2018-08-19T20:36:56.397Z,29.40
2018-08-19T20:39:25.734Z,29.30
2018-08-19T20:41:54.710Z,29.20
2018-08-19T20:44:24.244Z,29.10
2018-08-19T20:46:56.649Z,29.00
2018-08-19T20:49:26.712Z,28.90
2018-08-19T20:51:56.260Z,28.80
2018-08-19T20:54:24.890Z,28.60
2018-08-19T20:56:54.488Z,28.50
2018-08-19T20:59:41.496Z,28.60
2018-08-19T21:02:10.276Z,28.50
2018-08-19T21:04:39.993Z,28.50
2018-08-19T21:07:08.884Z,28.30
2018-08-19T21:09:38.923Z,28.30
2018-08-19T21:12:07.676Z,28.20
2018-08-19T21:14:36.849Z,28.20
2018-08-19T21:17:06.347Z,28.30
2018-08-19T21:19:35.639Z,28.20
2018-08-19T21:22:05.329Z,28.20
2018-08-19T21:24:34.289Z,28.20
2018-08-19T21:27:03.481Z,28.20
2018-08-19T21:29:32.847Z,28.10
2018-08-19T21:32:03.428Z,28.10
2018-08-19T21:34:32.669Z,28.00
2018-08-19T21:37:02.159Z,28.00
2018-08-19T21:39:31.473Z,27.90
2018-08-19T21:42:00.812Z,27.90
2018-08-19T21:44:29.557Z,27.90
2018-08-19T21:46:58.653Z,27.80
2018-08-19T21:49:27.692Z,27.90
2018-08-19T21:51:56.396Z,28.00
2018-08-19T21:54:26.134Z,28.10
2018-08-19T21:56:55.735Z,28.10
2018-08-19T21:59:25.577Z,28.10
2018-08-19T22:02:00.827Z,28.10
2018-08-19T22:04:30.222Z,28.10
2018-08-19T22:06:59.162Z,28.10
2018-08-19T22:09:31.548Z,28.00
2018-08-19T22:12:01.023Z,27.90
2018-08-19T22:14:30.614Z,27.80
2018-08-19T22:17:08.527Z,27.70
2018-08-19T22:19:37.527Z,27.70
2018-08-19T22:22:06.292Z,27.70
2018-08-19T22:24:35.320Z,27.70
2018-08-19T22:27:09.520Z,27.70
2018-08-19T22:29:38.454Z,27.80
2018-08-19T22:32:07.388Z,27.90
2018-08-19T22:34:36.716Z,27.90
2018-08-19T22:37:06.113Z,27.90
2018-08-19T22:39:36.124Z,28.00
2018-08-19T22:42:04.797Z,27.90
2018-08-19T22:44:33.749Z,28.00
2018-08-19T22:47:02.520Z,28.00
2018-08-19T22:49:31.965Z,28.00
2018-08-19T22:52:12.069Z,28.00
2018-08-19T22:54:40.969Z,27.90
2018-08-19T22:57:09.888Z,27.90
2018-08-19T22:59:38.787Z,28.00
2018-08-19T23:02:08.308Z,28.00
2018-08-19T23:04:37.903Z,27.90
2018-08-19T23:07:06.752Z,27.90
2018-08-19T23:09:36.183Z,27.90
2018-08-19T23:12:04.928Z,27.90
2018-08-19T23:14:49.200Z,27.90
2018-08-19T23:17:19.326Z,27.90
2018-08-19T23:19:50.288Z,27.90
2018-08-19T23:22:19.591Z,27.80
2018-08-19T23:24:48.410Z,27.70
2018-08-19T23:27:17.171Z,27.60
2018-08-19T23:29:46.837Z,27.50
2018-08-19T23:32:15.863Z,27.40
2018-08-19T23:34:45.448Z,27.40
2018-08-19T23:37:14.380Z,27.40
2018-08-19T23:39:43.068Z,27.40
2018-08-19T23:42:12.770Z,27.30
2018-08-19T23:44:41.417Z,27.20
2018-08-19T23:47:11.042Z,27.10
2018-08-19T23:49:40.437Z,27.20
2018-08-19T23:52:09.311Z,27.10
2018-08-19T23:54:38.092Z,27.10
2018-08-19T23:57:07.038Z,27.00
2018-08-19T23:59:36.600Z,27.00
